sensor_id;sensor_type;location;lat;lon;timestamp;pressure;altitude;pressure_sealevel;temperature;humidity
7050;BME280;22263;52.260;10.548;2023-03-01T00:01:27;102023.13;;;0.73;100.00
7050;BME280;22263;52.260;10.548;2023-03-01T00:04:00;102028.06;;;0.71;100.00
7050;BME280;22263;52.260;10.548;2023-03-01T00:06:31;102025.84;;;0.73;100.00
7050;BME280;22263;52.260;10.548;2023-03-01T00:09:06;102023.94;;;0.74;100.00
7050;BME280;22263;52.260;10.548;2023-03-01T00:11:35;102028.31;;;0.75;100.00
7050;BME280;22263;52.260;10.548;2023-03-01T00:14:06;102026.94;;;0.67;100.00
7050;BME280;22263;52.260;10.548;2023-03-01T00:16:38;102019.63;;;0.53;100.00
7050;BME280;22263;52.260;10.548;2023-03-01T00:19:11;102031.59;;;0.52;100.00
7050;BME280;22263;52.260;10.548;2023-03-01T00:21:42;102034.31;;;0.36;100.00
7050;BME280;22263;52.260;10.548;2023-03-01T00:24:17;102035.66;;;0.34;100.00
7050;BME280;22263;52.260;10.548;2023-03-01T00:26:47;102018.00;;;0.31;100.00
7050;BME280;22263;52.260;10.548;2023-03-01T00:29:17;102022.06;;;0.34;100.00
7050;BME280;22263;52.260;10.548;2023-03-01T00:31:47;102024.53;;;0.25;100.00
7050;BME280;22263;52.260;10.548;2023-03-01T00:34:17;102023.69;;;0.20;100.00
7050;BME280;22263;52.260;10.548;2023-03-01T00:36:47;102021.53;;;0.12;100.00
7050;BME280;22263;52.260;10.548;2023-03-01T00:39:19;102022.09;;;0.14;100.00
7050;BME280;22263;52.260;10.548;2023-03-01T00:41:54;102030.78;;;0.16;100.00
7050;BME280;22263;52.260;10.548;2023-03-01T00:44:24;102030.25;;;0.19;100.00
7050;BME280;22263;52.260;10.548;2023-03-01T00:46:55;102024.00;;;0.23;100.00
7050;BME280;22263;52.260;10.548;2023-03-01T00:49:31;102029.97;;;0.20;100.00
7050;BME280;22263;52.260;10.548;2023-03-01T00:52:01;102020.16;;;0.19;100.00
7050;BME280;22263;52.260;10.548;2023-03-01T00:54:33;102028.34;;;0.09;100.00
7050;BME280;22263;52.260;10.548;2023-03-01T00:57:03;102009.81;;;0.01;100.00
7050;BME280;22263;52.260;10.548;2023-03-01T00:59:42;102017.44;;;-0.01;100.00
7050;BME280;22263;52.260;10.548;2023-03-01T01:02:12;102022.88;;;-0.01;100.00
7050;BME280;22263;52.260;10.548;2023-03-01T01:04:44;102022.88;;;-0.01;100.00
7050;BME280;22263;52.260;10.548;2023-03-01T01:07:16;102014.44;;;-0.10;100.00
7050;BME280;22263;52.260;10.548;2023-03-01T01:09:49;102011.16;;;-0.17;100.00
7050;BME280;22263;52.260;10.548;2023-03-01T01:12:19;102007.63;;;-0.17;100.00
7050;BME280;22263;52.260;10.548;2023-03-01T01:14:49;102009.53;;;-0.13;100.00
7050;BME280;22263;52.260;10.548;2023-03-01T01:17:18;102005.19;;;-0.14;100.00
7050;BME280;22263;52.260;10.548;2023-03-01T01:19:48;102000.03;;;-0.10;100.00
7050;BME280;22263;52.260;10.548;2023-03-01T01:22:18;101997.03;;;-0.14;100.00
7050;BME280;22263;52.260;10.548;2023-03-01T01:24:53;102000.56;;;-0.13;100.00
7050;BME280;22263;52.260;10.548;2023-03-01T01:27:24;102001.34;;;-0.23;100.00
7050;BME280;22263;52.260;10.548;2023-03-01T01:29:54;101989.94;;;-0.35;100.00
7050;BME280;22263;52.260;10.548;2023-03-01T01:32:23;101995.91;;;-0.28;100.00
7050;BME280;22263;52.260;10.548;2023-03-01T01:34:53;101996.72;;;-0.32;100.00
7050;BME280;22263;52.260;10.548;2023-03-01T01:37:23;101997.78;;;-0.33;100.00
7050;BME280;22263;52.260;10.548;2023-03-01T01:40:01;101993.47;;;-0.34;100.00
7050;BME280;22263;52.260;10.548;2023-03-01T01:42:31;101996.47;;;-0.31;100.00
7050;BME280;22263;52.260;10.548;2023-03-01T01:48:10;101985.03;;;-0.33;100.00
7050;BME280;22263;52.260;10.548;2023-03-01T01:50:42;101987.47;;;-0.36;100.00
7050;BME280;22263;52.260;10.548;2023-03-01T01:53:16;101983.94;;;-0.37;100.00
7050;BME280;22263;52.260;10.548;2023-03-01T01:55:52;101986.94;;;-0.33;100.00
7050;BME280;22263;52.260;10.548;2023-03-01T01:58:26;101982.06;;;-0.31;100.00
7050;BME280;22263;52.260;10.548;2023-03-01T02:00:59;101980.72;;;-0.34;100.00
7050;BME280;22263;52.260;10.548;2023-03-01T02:03:32;101986.94;;;-0.38;100.00
7050;BME280;22263;52.260;10.548;2023-03-01T02:06:10;101970.34;;;-0.42;100.00
7050;BME280;22263;52.260;10.548;2023-03-01T02:08:41;101973.34;;;-0.43;100.00
7050;BME280;22263;52.260;10.548;2023-03-01T02:11:15;101967.91;;;-0.43;100.00
7050;BME280;22263;52.260;10.548;2023-03-01T02:13:48;101961.66;;;-0.44;100.00
7050;BME280;22263;52.260;10.548;2023-03-01T02:16:18;101969.78;;;-0.49;100.00
7050;BME280;22263;52.260;10.548;2023-03-01T02:18:49;101959.97;;;-0.60;100.00
7050;BME280;22263;52.260;10.548;2023-03-01T02:21:32;101960.00;;;-0.55;100.00
7050;BME280;22263;52.260;10.548;2023-03-01T02:24:13;101949.13;;;-0.60;100.00
7050;BME280;22263;52.260;10.548;2023-03-01T02:26:52;101943.13;;;-0.67;100.00
7050;BME280;22263;52.260;10.548;2023-03-01T02:29:26;101946.66;;;-0.67;100.00
7050;BME280;22263;52.260;10.548;2023-03-01T02:31:59;101943.94;;;-0.67;100.00
7050;BME280;22263;52.260;10.548;2023-03-01T02:34:32;101934.41;;;-0.74;100.00
7050;BME280;22263;52.260;10.548;2023-03-01T02:37:05;101941.47;;;-0.73;100.00
7050;BME280;22263;52.260;10.548;2023-03-01T02:39:39;101927.06;;;-0.79;100.00
7050;BME280;22263;52.260;10.548;2023-03-01T02:42:13;101939.00;;;-0.85;100.00
7050;BME280;22263;52.260;10.548;2023-03-01T02:44:48;101938.66;;;-0.99;100.00
7050;BME280;22263;52.260;10.548;2023-03-01T02:47:21;101938.66;;;-0.99;100.00
7050;BME280;22263;52.260;10.548;2023-03-01T02:49:51;101935.41;;;-1.01;100.00
7050;BME280;22263;52.260;10.548;2023-03-01T02:52:37;101935.72;;;-0.92;100.00
7050;BME280;22263;52.260;10.548;2023-03-01T02:55:13;101924.84;;;-0.97;100.00
7050;BME280;22263;52.260;10.548;2023-03-01T02:57:45;101921.28;;;-1.03;100.00
7050;BME280;22263;52.260;10.548;2023-03-01T03:00:24;101911.50;;;-1.09;100.00
7050;BME280;22263;52.260;10.548;2023-03-01T03:02:57;101917.19;;;-1.05;100.00
7050;BME280;22263;52.260;10.548;2023-03-01T03:05:29;101912.53;;;-1.15;100.00
7050;BME280;22263;52.260;10.548;2023-03-01T03:08:00;101919.59;;;-1.14;100.00
7050;BME280;22263;52.260;10.548;2023-03-01T03:10:38;101920.16;;;-1.12;100.00
7050;BME280;22263;52.260;10.548;2023-03-01T03:13:14;101920.44;;;-1.13;100.00
7050;BME280;22263;52.260;10.548;2023-03-01T03:15:47;101922.03;;;-1.17;100.00
7050;BME280;22263;52.260;10.548;2023-03-01T03:18:17;101924.44;;;-1.26;100.00
7050;BME280;22263;52.260;10.548;2023-03-01T03:20:48;101923.06;;;-1.28;100.00
7050;BME280;22263;52.260;10.548;2023-03-01T03:23:26;101925.75;;;-1.34;100.00
7050;BME280;22263;52.260;10.548;2023-03-01T03:26:01;101932.81;;;-1.33;100.00
7050;BME280;22263;52.260;10.548;2023-03-01T03:28:32;101916.25;;;-1.36;100.00
7050;BME280;22263;52.260;10.548;2023-03-01T03:31:09;101936.59;;;-1.34;100.00
7050;BME280;22263;52.260;10.548;2023-03-01T03:33:39;101931.72;;;-1.37;100.00
7050;BME280;22263;52.260;10.548;2023-03-01T03:36:09;101935.78;;;-1.34;100.00
7050;BME280;22263;52.260;10.548;2023-03-01T03:38:40;101936.88;;;-1.35;100.00
7050;BME280;22263;52.260;10.548;2023-03-01T03:41:10;101928.47;;;-1.34;100.00
7050;BME280;22263;52.260;10.548;2023-03-01T03:43:40;101933.06;;;-1.34;100.00
7050;BME280;22263;52.260;10.548;2023-03-01T03:46:14;101924.16;;;-1.35;100.00
7050;BME280;22263;52.260;10.548;2023-03-01T03:48:45;101923.56;;;-1.37;100.00
7050;BME280;22263;52.260;10.548;2023-03-01T03:51:17;101926.53;;;-1.38;100.00
7050;BME280;22263;52.260;10.548;2023-03-01T03:53:49;101925.72;;;-1.39;100.00
7050;BME280;22263;52.260;10.548;2023-03-01T03:56:19;101925.19;;;-1.41;100.00
7050;BME280;22263;52.260;10.548;2023-03-01T03:58:54;101917.56;;;-1.44;100.00
7050;BME280;22263;52.260;10.548;2023-03-01T04:01:26;101923.28;;;-1.40;100.00
7050;BME280;22263;52.260;10.548;2023-03-01T04:04:01;101917.31;;;-1.42;100.00
7050;BME280;22263;52.260;10.548;2023-03-01T04:06:31;101923.56;;;-1.42;100.00
7050;BME280;22263;52.260;10.548;2023-03-01T04:09:01;101917.03;;;-1.46;100.00
7050;BME280;22263;52.260;10.548;2023-03-01T04:11:31;101920.81;;;-1.47;100.00
7050;BME280;22263;52.260;10.548;2023-03-01T04:14:02;101938.50;;;-1.39;100.00
7050;BME280;22263;52.260;10.548;2023-03-01T04:16:34;101933.84;;;-1.44;100.00
7050;BME280;22263;52.260;10.548;2023-03-01T04:19:04;101932.47;;;-1.46;100.00
7050;BME280;22263;52.260;10.548;2023-03-01T04:21:36;101933.31;;;-1.46;100.00
7050;BME280;22263;52.260;10.548;2023-03-01T04:24:06;101933.31;;;-1.46;100.00
7050;BME280;22263;52.260;10.548;2023-03-01T04:26:36;101928.41;;;-1.49;100.00
7050;BME280;22263;52.260;10.548;2023-03-01T04:29:06;101928.41;;;-1.49;100.00
7050;BME280;22263;52.260;10.548;2023-03-01T04:31:39;101928.41;;;-1.49;100.00
7050;BME280;22263;52.260;10.548;2023-03-01T04:34:08;101926.75;;;-1.55;100.00
7050;BME280;22263;52.260;10.548;2023-03-01T04:36:40;101928.34;;;-1.59;100.00
7050;BME280;22263;52.260;10.548;2023-03-01T04:39:10;101928.84;;;-1.62;100.00
7050;BME280;22263;52.260;10.548;2023-03-01T04:41:41;101929.13;;;-1.63;100.00
7050;BME280;22263;52.260;10.548;2023-03-01T04:44:11;101929.94;;;-1.63;100.00
7050;BME280;22263;52.260;10.548;2023-03-01T04:46:43;101927.75;;;-1.66;100.00
7050;BME280;22263;52.260;10.548;2023-03-01T04:49:13;101924.75;;;-1.69;100.00
7050;BME280;22263;52.260;10.548;2023-03-01T04:51:42;101916.63;;;-1.69;100.00
7050;BME280;22263;52.260;10.548;2023-03-01T04:54:12;101917.66;;;-1.76;100.00
7050;BME280;22263;52.260;10.548;2023-03-01T04:56:41;101917.38;;;-1.79;100.00
7050;BME280;22263;52.260;10.548;2023-03-01T04:59:11;101911.09;;;-1.85;100.00
7050;BME280;22263;52.260;10.548;2023-03-01T05:01:43;101922.13;;;-1.91;100.00
7050;BME280;22263;52.260;10.548;2023-03-01T05:04:13;101913.97;;;-1.96;100.00
7050;BME280;22263;52.260;10.548;2023-03-01T05:06:43;101912.38;;;-1.97;100.00
7050;BME280;22263;52.260;10.548;2023-03-01T05:09:12;101914.53;;;-1.94;100.00
7050;BME280;22263;52.260;10.548;2023-03-01T05:11:42;101905.78;;;-2.06;100.00
7050;BME280;22263;52.260;10.548;2023-03-01T05:14:12;101917.22;;;-1.99;100.00
7050;BME280;22263;52.260;10.548;2023-03-01T05:16:44;101915.28;;;-2.04;100.00
7050;BME280;22263;52.260;10.548;2023-03-01T05:19:13;101915.50;;;-2.10;100.00
7050;BME280;22263;52.260;10.548;2023-03-01T05:21:49;101912.81;;;-2.05;100.00
7050;BME280;22263;52.260;10.548;2023-03-01T05:24:33;101905.97;;;-2.18;100.00
7050;BME280;22263;52.260;10.548;2023-03-01T05:27:05;101920.81;;;-2.21;100.00
7050;BME280;22263;52.260;10.548;2023-03-01T05:29:35;101915.38;;;-2.26;100.00
7050;BME280;22263;52.260;10.548;2023-03-01T05:32:08;101910.50;;;-2.24;100.00
7050;BME280;22263;52.260;10.548;2023-03-01T05:34:42;101920.81;;;-2.21;100.00
7050;BME280;22263;52.260;10.548;2023-03-01T05:37:13;101916.75;;;-2.23;100.00
7050;BME280;22263;52.260;10.548;2023-03-01T05:39:42;101914.00;;;-2.28;100.00
7050;BME280;22263;52.260;10.548;2023-03-01T05:42:14;101903.69;;;-2.31;100.00
7050;BME280;22263;52.260;10.548;2023-03-01T05:44:43;101907.75;;;-2.29;100.00
7050;BME280;22263;52.260;10.548;2023-03-01T05:47:16;101920.75;;;-2.31;100.00
7050;BME280;22263;52.260;10.548;2023-03-01T05:49:45;101912.09;;;-2.28;100.00
7050;BME280;22263;52.260;10.548;2023-03-01T05:52:16;101910.72;;;-2.30;100.00
7050;BME280;22263;52.260;10.548;2023-03-01T05:54:46;101907.16;;;-2.36;100.00
7050;BME280;22263;52.260;10.548;2023-03-01T05:57:16;101905.25;;;-2.40;100.00
7050;BME280;22263;52.260;10.548;2023-03-01T05:59:45;101909.84;;;-2.41;100.00
7050;BME280;22263;52.260;10.548;2023-03-01T06:02:17;101909.00;;;-2.41;100.00
7050;BME280;22263;52.260;10.548;2023-03-01T06:04:47;101901.38;;;-2.42;100.00
7050;BME280;22263;52.260;10.548;2023-03-01T06:07:17;79111.84;;;-145.39;100.00
7050;BME280;22263;52.260;10.548;2023-03-01T06:09:47;79111.84;;;-145.39;100.00
7050;BME280;22263;52.260;10.548;2023-03-01T06:12:16;79111.84;;;-145.39;100.00
7050;BME280;22263;52.260;10.548;2023-03-01T06:14:46;79111.84;;;-145.39;100.00
7050;BME280;22263;52.260;10.548;2023-03-01T06:17:19;79111.84;;;-145.39;100.00
7050;BME280;22263;52.260;10.548;2023-03-01T06:19:49;79111.84;;;-145.39;100.00
7050;BME280;22263;52.260;10.548;2023-03-01T06:22:18;79111.84;;;-145.39;100.00
7050;BME280;22263;52.260;10.548;2023-03-01T06:24:48;79111.84;;;-145.39;100.00
7050;BME280;22263;52.260;10.548;2023-03-01T06:27:17;79111.84;;;-145.39;100.00
7050;BME280;22263;52.260;10.548;2023-03-01T06:29:47;79111.84;;;-145.39;100.00
7050;BME280;22263;52.260;10.548;2023-03-01T06:32:20;79111.84;;;-145.39;100.00
7050;BME280;22263;52.260;10.548;2023-03-01T06:34:50;79111.84;;;-145.39;100.00
7050;BME280;22263;52.260;10.548;2023-03-01T06:37:19;79111.84;;;-145.39;100.00
7050;BME280;22263;52.260;10.548;2023-03-01T06:39:49;79111.84;;;-145.39;100.00
7050;BME280;22263;52.260;10.548;2023-03-01T06:42:19;79111.84;;;-145.39;100.00
7050;BME280;22263;52.260;10.548;2023-03-01T06:44:48;79111.84;;;-145.39;100.00
7050;BME280;22263;52.260;10.548;2023-03-01T06:47:21;79111.84;;;-145.39;100.00
7050;BME280;22263;52.260;10.548;2023-03-01T06:49:50;79111.84;;;-145.39;100.00
7050;BME280;22263;52.260;10.548;2023-03-01T06:52:20;79111.84;;;-145.39;100.00
7050;BME280;22263;52.260;10.548;2023-03-01T06:54:50;79111.84;;;-145.39;100.00
7050;BME280;22263;52.260;10.548;2023-03-01T06:57:19;79111.84;;;-145.39;100.00
7050;BME280;22263;52.260;10.548;2023-03-01T06:59:49;79111.84;;;-145.39;100.00
7050;BME280;22263;52.260;10.548;2023-03-01T07:02:21;79111.84;;;-145.39;100.00
7050;BME280;22263;52.260;10.548;2023-03-01T07:04:51;79111.84;;;-145.39;100.00
7050;BME280;22263;52.260;10.548;2023-03-01T07:07:21;79111.84;;;-145.39;100.00
7050;BME280;22263;52.260;10.548;2023-03-01T07:09:51;79111.84;;;-145.39;100.00
7050;BME280;22263;52.260;10.548;2023-03-01T07:12:20;79111.84;;;-145.39;100.00
7050;BME280;22263;52.260;10.548;2023-03-01T07:14:50;79111.84;;;-145.39;100.00
7050;BME280;22263;52.260;10.548;2023-03-01T07:17:22;79111.84;;;-145.39;100.00
7050;BME280;22263;52.260;10.548;2023-03-01T07:19:52;79111.84;;;-145.39;100.00
7050;BME280;22263;52.260;10.548;2023-03-01T07:22:21;79111.84;;;-145.39;100.00
7050;BME280;22263;52.260;10.548;2023-03-01T07:24:51;79111.84;;;-145.39;100.00
7050;BME280;22263;52.260;10.548;2023-03-01T07:27:20;79111.84;;;-145.39;100.00
7050;BME280;22263;52.260;10.548;2023-03-01T07:29:50;79111.84;;;-145.39;100.00
7050;BME280;22263;52.260;10.548;2023-03-01T07:32:22;79111.84;;;-145.39;100.00
7050;BME280;22263;52.260;10.548;2023-03-01T07:34:52;79111.84;;;-145.39;100.00
7050;BME280;22263;52.260;10.548;2023-03-01T07:37:21;79111.84;;;-145.39;100.00
7050;BME280;22263;52.260;10.548;2023-03-01T07:39:51;79111.84;;;-145.39;100.00
7050;BME280;22263;52.260;10.548;2023-03-01T07:42:20;79111.84;;;-145.39;100.00
7050;BME280;22263;52.260;10.548;2023-03-01T07:44:50;79111.84;;;-145.39;100.00
7050;BME280;22263;52.260;10.548;2023-03-01T07:47:23;79111.84;;;-145.39;100.00
7050;BME280;22263;52.260;10.548;2023-03-01T07:49:52;79111.84;;;-145.39;100.00
7050;BME280;22263;52.260;10.548;2023-03-01T07:52:22;79111.84;;;-145.39;100.00
7050;BME280;22263;52.260;10.548;2023-03-01T07:54:52;79111.84;;;-145.39;100.00
7050;BME280;22263;52.260;10.548;2023-03-01T07:57:21;79111.84;;;-145.39;100.00
7050;BME280;22263;52.260;10.548;2023-03-01T07:59:51;79111.84;;;-145.39;100.00
7050;BME280;22263;52.260;10.548;2023-03-01T08:02:23;79111.84;;;-145.39;100.00
7050;BME280;22263;52.260;10.548;2023-03-01T08:04:52;79111.84;;;-145.39;100.00
7050;BME280;22263;52.260;10.548;2023-03-01T08:07:22;79111.84;;;-145.39;100.00
7050;BME280;22263;52.260;10.548;2023-03-01T08:09:52;79111.84;;;-145.39;100.00
7050;BME280;22263;52.260;10.548;2023-03-01T08:12:21;79111.84;;;-145.39;100.00
7050;BME280;22263;52.260;10.548;2023-03-01T08:14:51;79111.84;;;-145.39;100.00
7050;BME280;22263;52.260;10.548;2023-03-01T08:17:23;79111.84;;;-145.39;100.00
7050;BME280;22263;52.260;10.548;2023-03-01T08:19:53;79111.84;;;-145.39;100.00
7050;BME280;22263;52.260;10.548;2023-03-01T08:22:22;79111.84;;;-145.39;100.00
7050;BME280;22263;52.260;10.548;2023-03-01T08:24:52;79111.84;;;-145.39;100.00
7050;BME280;22263;52.260;10.548;2023-03-01T08:27:22;79111.84;;;-145.39;100.00
7050;BME280;22263;52.260;10.548;2023-03-01T08:29:51;79111.84;;;-145.39;100.00
7050;BME280;22263;52.260;10.548;2023-03-01T08:32:23;79111.84;;;-145.39;100.00
7050;BME280;22263;52.260;10.548;2023-03-01T08:34:54;79111.84;;;-145.39;100.00
7050;BME280;22263;52.260;10.548;2023-03-01T08:37:23;79111.84;;;-145.39;100.00
7050;BME280;22263;52.260;10.548;2023-03-01T08:39:52;79111.84;;;-145.39;100.00
7050;BME280;22263;52.260;10.548;2023-03-01T08:42:22;79111.84;;;-145.39;100.00
7050;BME280;22263;52.260;10.548;2023-03-01T08:44:52;79111.84;;;-145.39;100.00
7050;BME280;22263;52.260;10.548;2023-03-01T08:47:24;79111.84;;;-145.39;100.00
7050;BME280;22263;52.260;10.548;2023-03-01T08:49:54;79111.84;;;-145.39;100.00
7050;BME280;22263;52.260;10.548;2023-03-01T08:52:23;79111.84;;;-145.39;100.00
7050;BME280;22263;52.260;10.548;2023-03-01T08:54:54;79111.84;;;-145.39;100.00
7050;BME280;22263;52.260;10.548;2023-03-01T08:57:23;79111.84;;;-145.39;100.00
7050;BME280;22263;52.260;10.548;2023-03-01T08:59:53;79111.84;;;-145.39;100.00
7050;BME280;22263;52.260;10.548;2023-03-01T09:02:25;79111.84;;;-145.39;100.00
7050;BME280;22263;52.260;10.548;2023-03-01T09:04:55;79111.84;;;-145.39;100.00
7050;BME280;22263;52.260;10.548;2023-03-01T09:07:26;79111.84;;;-145.39;100.00
7050;BME280;22263;52.260;10.548;2023-03-01T09:09:56;79111.84;;;-145.39;100.00
7050;BME280;22263;52.260;10.548;2023-03-01T09:12:25;79111.84;;;-145.39;100.00
7050;BME280;22263;52.260;10.548;2023-03-01T09:14:55;79111.84;;;-145.39;100.00
7050;BME280;22263;52.260;10.548;2023-03-01T09:17:27;79111.84;;;-145.39;100.00
7050;BME280;22263;52.260;10.548;2023-03-01T09:19:57;79111.84;;;-145.39;100.00
7050;BME280;22263;52.260;10.548;2023-03-01T09:22:26;79111.84;;;-145.39;100.00
7050;BME280;22263;52.260;10.548;2023-03-01T09:24:56;79111.84;;;-145.39;100.00
7050;BME280;22263;52.260;10.548;2023-03-01T09:27:26;79111.84;;;-145.39;100.00
7050;BME280;22263;52.260;10.548;2023-03-01T09:29:55;79111.84;;;-145.39;100.00
7050;BME280;22263;52.260;10.548;2023-03-01T09:32:29;79111.84;;;-145.39;100.00
7050;BME280;22263;52.260;10.548;2023-03-01T09:34:59;79111.84;;;-145.39;100.00
7050;BME280;22263;52.260;10.548;2023-03-01T09:37:34;79111.84;;;-145.39;100.00
7050;BME280;22263;52.260;10.548;2023-03-01T09:40:06;79111.84;;;-145.39;100.00
7050;BME280;22263;52.260;10.548;2023-03-01T09:42:50;79111.84;;;-145.39;100.00
7050;BME280;22263;52.260;10.548;2023-03-01T09:45:27;79111.84;;;-145.39;100.00
7050;BME280;22263;52.260;10.548;2023-03-01T09:48:01;79111.84;;;-145.39;100.00
7050;BME280;22263;52.260;10.548;2023-03-01T09:50:34;79111.84;;;-145.39;100.00
7050;BME280;22263;52.260;10.548;2023-03-01T09:53:07;79111.84;;;-145.39;100.00
7050;BME280;22263;52.260;10.548;2023-03-01T09:55:43;79111.84;;;-145.39;100.00
7050;BME280;22263;52.260;10.548;2023-03-01T09:58:31;79111.84;;;-145.39;100.00
7050;BME280;22263;52.260;10.548;2023-03-01T10:01:23;79111.84;;;-145.39;100.00
7050;BME280;22263;52.260;10.548;2023-03-01T10:04:18;79111.84;;;-145.39;100.00
7050;BME280;22263;52.260;10.548;2023-03-01T10:07:02;79111.84;;;-145.39;100.00
7050;BME280;22263;52.260;10.548;2023-03-01T10:09:36;79111.84;;;-145.39;100.00
7050;BME280;22263;52.260;10.548;2023-03-01T10:12:10;79111.84;;;-145.39;100.00
7050;BME280;22263;52.260;10.548;2023-03-01T10:14:48;79111.84;;;-145.39;100.00
7050;BME280;22263;52.260;10.548;2023-03-01T10:17:27;79111.84;;;-145.39;100.00
7050;BME280;22263;52.260;10.548;2023-03-01T10:20:15;79111.84;;;-145.39;100.00
7050;BME280;22263;52.260;10.548;2023-03-01T10:22:46;79111.84;;;-145.39;100.00
7050;BME280;22263;52.260;10.548;2023-03-01T10:25:26;79111.84;;;-145.39;100.00
7050;BME280;22263;52.260;10.548;2023-03-01T10:28:02;79111.84;;;-145.39;100.00
7050;BME280;22263;52.260;10.548;2023-03-01T10:30:36;79111.84;;;-145.39;100.00
7050;BME280;22263;52.260;10.548;2023-03-01T10:33:15;79111.84;;;-145.39;100.00
7050;BME280;22263;52.260;10.548;2023-03-01T10:35:49;79111.84;;;-145.39;100.00
7050;BME280;22263;52.260;10.548;2023-03-01T10:38:19;79111.84;;;-145.39;100.00
7050;BME280;22263;52.260;10.548;2023-03-01T10:40:51;79111.84;;;-145.39;100.00
7050;BME280;22263;52.260;10.548;2023-03-01T10:43:24;79111.84;;;-145.39;100.00
7050;BME280;22263;52.260;10.548;2023-03-01T10:45:54;79111.84;;;-145.39;100.00
7050;BME280;22263;52.260;10.548;2023-03-01T10:48:26;79111.84;;;-145.39;100.00
7050;BME280;22263;52.260;10.548;2023-03-01T10:51:07;79111.84;;;-145.39;100.00
7050;BME280;22263;52.260;10.548;2023-03-01T10:53:40;79111.84;;;-145.39;100.00
7050;BME280;22263;52.260;10.548;2023-03-01T10:56:11;79111.84;;;-145.39;100.00
7050;BME280;22263;52.260;10.548;2023-03-01T10:58:58;79111.84;;;-145.39;100.00
7050;BME280;22263;52.260;10.548;2023-03-01T11:01:29;79111.84;;;-145.39;100.00
7050;BME280;22263;52.260;10.548;2023-03-01T11:04:11;79111.84;;;-145.39;100.00
7050;BME280;22263;52.260;10.548;2023-03-01T11:06:43;79111.84;;;-145.39;100.00
7050;BME280;22263;52.260;10.548;2023-03-01T11:09:31;79111.84;;;-145.39;100.00
7050;BME280;22263;52.260;10.548;2023-03-01T11:12:11;79111.84;;;-145.39;100.00
7050;BME280;22263;52.260;10.548;2023-03-01T11:14:46;79111.84;;;-145.39;100.00
7050;BME280;22263;52.260;10.548;2023-03-01T11:17:21;79111.84;;;-145.39;100.00
7050;BME280;22263;52.260;10.548;2023-03-01T11:20:07;79111.84;;;-145.39;100.00
7050;BME280;22263;52.260;10.548;2023-03-01T11:22:50;79111.84;;;-145.39;100.00
7050;BME280;22263;52.260;10.548;2023-03-01T11:25:24;79111.84;;;-145.39;100.00
7050;BME280;22263;52.260;10.548;2023-03-01T11:27:55;79111.84;;;-145.39;100.00
7050;BME280;22263;52.260;10.548;2023-03-01T11:30:28;79111.84;;;-145.39;100.00
7050;BME280;22263;52.260;10.548;2023-03-01T11:33:08;79111.84;;;-145.39;100.00
7050;BME280;22263;52.260;10.548;2023-03-01T11:35:45;79111.84;;;-145.39;100.00
7050;BME280;22263;52.260;10.548;2023-03-01T11:38:21;79111.84;;;-145.39;100.00
7050;BME280;22263;52.260;10.548;2023-03-01T11:40:54;79111.84;;;-145.39;100.00
7050;BME280;22263;52.260;10.548;2023-03-01T11:43:32;79111.84;;;-145.39;100.00
7050;BME280;22263;52.260;10.548;2023-03-01T11:49:25;79111.84;;;-145.39;100.00
7050;BME280;22263;52.260;10.548;2023-03-01T11:52:05;79111.84;;;-145.39;100.00
7050;BME280;22263;52.260;10.548;2023-03-01T11:54:50;79111.84;;;-145.39;100.00
7050;BME280;22263;52.260;10.548;2023-03-01T11:57:35;79111.84;;;-145.39;100.00
7050;BME280;22263;52.260;10.548;2023-03-01T12:00:36;79111.84;;;-145.39;100.00
7050;BME280;22263;52.260;10.548;2023-03-01T12:03:28;79111.84;;;-145.39;100.00
7050;BME280;22263;52.260;10.548;2023-03-01T12:06:19;79111.84;;;-145.39;100.00
7050;BME280;22263;52.260;10.548;2023-03-01T12:09:02;79111.84;;;-145.39;100.00
7050;BME280;22263;52.260;10.548;2023-03-01T12:12:03;79111.84;;;-145.39;100.00
7050;BME280;22263;52.260;10.548;2023-03-01T12:14:51;79111.84;;;-145.39;100.00
7050;BME280;22263;52.260;10.548;2023-03-01T12:20:28;79111.84;;;-145.39;100.00
7050;BME280;22263;52.260;10.548;2023-03-01T12:23:20;79111.84;;;-145.39;100.00
7050;BME280;22263;52.260;10.548;2023-03-01T12:25:55;79111.84;;;-145.39;100.00
7050;BME280;22263;52.260;10.548;2023-03-01T12:29:00;79111.84;;;-145.39;100.00
7050;BME280;22263;52.260;10.548;2023-03-01T12:32:04;79111.84;;;-145.39;100.00
7050;BME280;22263;52.260;10.548;2023-03-01T12:34:52;79111.84;;;-145.39;100.00
7050;BME280;22263;52.260;10.548;2023-03-01T12:37:31;79111.84;;;-145.39;100.00
7050;BME280;22263;52.260;10.548;2023-03-01T12:40:24;79111.84;;;-145.39;100.00
7050;BME280;22263;52.260;10.548;2023-03-01T12:43:08;79111.84;;;-145.39;100.00
7050;BME280;22263;52.260;10.548;2023-03-01T12:45:54;79111.84;;;-145.39;100.00
7050;BME280;22263;52.260;10.548;2023-03-01T12:48:37;79111.84;;;-145.39;100.00
7050;BME280;22263;52.260;10.548;2023-03-01T12:51:12;79111.84;;;-145.39;100.00
7050;BME280;22263;52.260;10.548;2023-03-01T12:53:46;79111.84;;;-145.39;100.00
7050;BME280;22263;52.260;10.548;2023-03-01T12:56:18;79111.84;;;-145.39;100.00
7050;BME280;22263;52.260;10.548;2023-03-01T12:58:56;79111.84;;;-145.39;100.00
7050;BME280;22263;52.260;10.548;2023-03-01T13:01:39;79111.84;;;-145.39;100.00
7050;BME280;22263;52.260;10.548;2023-03-01T13:04:27;79111.84;;;-145.39;100.00
7050;BME280;22263;52.260;10.548;2023-03-01T13:07:23;79111.84;;;-145.39;100.00
7050;BME280;22263;52.260;10.548;2023-03-01T13:10:02;79111.84;;;-145.39;100.00
7050;BME280;22263;52.260;10.548;2023-03-01T13:12:43;79111.84;;;-145.39;100.00
7050;BME280;22263;52.260;10.548;2023-03-01T13:15:34;79111.84;;;-145.39;100.00
7050;BME280;22263;52.260;10.548;2023-03-01T13:18:28;79111.84;;;-145.39;100.00